ACT        NSW        VIC        QLD        SA        WA        TAS        NT        INFO        CALC            by VK5ZD

  Atmospheric Gas Attenuation - ITU Rec 676-11   --------------- db/100km ---------------
SA Stations Date Time Temp RH % AH g/m3 Dew Point Wind Direction Speed kph Gust kph Barometer mB Rainfall Since 9am 24GHz 47GHz 76GHz 122GHz 134GHz 241GHz
Adelaide (West Terrace / Ngayirdapira) 24 09:20 14.6 61 7.63 7.2 13 15 1026.4 0 17.5 24.6 36.2 94.6 85.9 294.7
Adelaide Airport 24 09:20 14.6 61 7.63 7.2 19 26 1026.6 0 17.5 24.6 36.2 94.6 85.9 294.7
Andamooka 24 09:00 15 44 5.64 2.8 22 1013.1 0 13.3 21.1 28.2 73.4 60.5 205.8
Cape Borda 24 09:20 12.8 82 9.19 9.8 22 26 1027.3 0 20.9 27.7 43.4 113.8 108.9 375.0
Cape Jaffa 24 09:20 14.2 57 6.96 5.8 30 33 1013.1 0 16.1 23.2 33.2 87.0 77.0 263.5
Cape Willoughby 24 09:20 12.7 79 8.79 9.1 28 32 1013.1 0 20.1 26.5 41.1 108.0 102.4 352.2
Ceduna 24 09:20 14.7 67 8.44 8.6 24 28 1026.8 0 19.2 25.9 39.3 103.0 96.3 331.0
Clare 24 09:20 11.7 63 6.59 4.9 17 22 1025.3 0 15.4 23.7 33.4 87.1 75.6 258.1
Cleve Airport 24 09:20 15.7 56 7.49 7 20 26 1026.1 0 17.1 24.1 35.1 91.8 82.9 284.4
Coober Pedy Airport 24 09:20 16.5 43 6.04 3.9 32 39 1023.4 0 14.0 21.7 29.4 76.6 64.6 220.1
Coonawarra 24 09:20 12.9 65 7.33 6.6 24 32 1026.2 0 16.9 24.6 35.8 93.5 83.9 287.4
Cultana (Defence) 24 09:20 13.7 53 6.28 4.3 35 44 1013.1 0 14.7 22.3 30.9 80.8 69.1 235.9
Cummins Airport 24 09:20 15.1 61 7.87 7.6 26 28 1026.8 0 18.0 24.9 36.9 96.5 88.4 303.6
Edinburgh 24 09:20 14.5 60 7.46 6.8 11 13 1026.7 0 17.1 24.4 35.6 93.0 83.9 287.5
Edithburgh 24 09:20 15.9 62 8.4 8.6 19 20 1013.1 0 19.1 25.0 38.0 99.6 93.2 320.6
Elliston 24 09:00 15.5 66 8.72 9.3 11 1027.5 0 19.7 26.1 40.1 105.0 99.0 340.6
Ernabella/Pukatja 24 09:20 17.8 32 4.86 0.9 24 28 1019.9 0 11.5 19.6 24.9 64.5 50.2 169.7
Gluepot 24 09:00 13.5 66 7.72 7.4 7 1013.1 0 17.7 24.6 36.5 95.5 87.3 299.5
Hawker 24 09:00 13.9 50 5.99 3.7 22 1023.5 0 14.0 22.2 30.2 78.6 66.1 225.1
Hindmarsh Island 24 09:20 14 71 8.56 8.8 24 26 1026.5 0 19.5 26.3 40.1 105.1 98.7 339.4
Kadina 24 09:20 14 69 8.32 8.4 11 13 1026.5 0 19.0 25.9 39.2 102.6 95.5 328.3
Keith West 24 09:20 13.9 66 7.91 7.6 15 22 1013.1 0 18.1 24.8 37.0 97.0 89.3 306.6
Kingscote 24 09:20 15.4 65 8.54 8.9 22 26 1027 0 19.4 25.8 39.4 103.1 96.7 332.7
Kuitpo 24 09:20 9.8 97 9 9.3 9 15 1024.9 0 20.6 28.2 44.1 115.8 110.3 379.5
Kyancutta 24 09:00 12.2 80 8.63 8.8 6 1026.1 0 19.7 26.9 41.3 108.3 101.9 350.5
Lameroo Aws 24 09:20 14.3 60 7.37 6.6 13 17 1013.1 0 16.9 23.8 34.8 91.0 82.0 281.1
Leigh Creek 24 09:20 17.1 36 5.24 1.9 17 20 1022.3 0 12.3 20.4 26.4 68.6 54.9 186.3
Loxton 24 09:20 14.5 58 7.21 6.3 20 24 1026 0 16.6 24.0 34.6 90.4 80.7 276.3
Marree Airport 24 09:20 18.4 33 5.19 1.9 19 20 1023 0 12.2 20.0 25.9 67.1 53.6 181.6
Meningie 24 09:00 13.4 77 8.95 9.5 1026.3 0.2 20.3 27.1 42.0 110.2 104.7 360.4
Minlaton Airport 24 09:20 16.6 55 7.77 7.5 17 19 1026.6 0 17.7 24.3 35.8 93.7 85.5 293.5
Minnipa Rs 24 09:20 14.3 58 7.13 6.2 22 24 1026.4 0 16.4 23.9 34.4 89.8 79.9 273.6
Moomba Airport 24 09:20 22.4 26 5.16 2 26 30 1020.2 0 12.0 19.1 24.5 63.5 50.6 171.6
Mount Crawford 24 09:20 11.4 76 7.8 7.3 20 28 1024.9 0 18.0 25.7 38.3 100.2 91.6 314.4
Mount Gambier 24 09:20 12.3 63 6.84 5.5 26 30 1026.2 0 15.9 24.0 34.1 89.1 78.2 267.5
Mount Lofty 24 09:20 8.3 91 7.67 6.9 7 9 1013.1 0 17.8 26.0 38.7 101.5 92.7 317.6
Murray Bridge 24 09:00 15 71 9.1 9.8 4 1013.1 0 20.6 26.3 41.2 108.2 103.4 356.3
Naracoorte 24 09:20 13.4 58 6.74 5.3 33 41 1026 0 15.6 23.5 33.3 86.8 75.9 259.4
Noarlunga 24 09:20 14.6 67 8.38 8.7 11 15 1013.1 0 19.1 25.3 38.5 101.1 94.5 325.0
Nullarbor 24 09:20 15.5 61 8.06 8 26 30 1026.4 0 18.3 25.0 37.4 97.9 90.4 310.4
Nuriootpa 24 09:20 13.1 66 7.53 6.9 11 15 1026.1 0 17.3 24.9 36.4 95.3 86.2 295.7
Oodnadatta 24 09:20 17.3 41 6.04 3.9 37 39 1021.9 0 14.0 21.4 29.1 75.7 63.8 217.6
Padthaway 24 09:20 13.2 60 6.89 5.6 19 22 1013.1 0 16.0 23.4 33.4 87.3 77.1 263.8
Pallamana 24 09:20 14.3 73 8.97 9.5 15 19 1026.9 0 20.3 26.9 41.7 109.2 103.8 357.4
Parafield 24 09:20 15.7 55 7.36 6.7 13 17 1026.4 0 16.9 23.9 34.7 90.6 81.3 278.8
Parawa West 24 09:20 11 84 8.41 8.4 15 19 1013.1 0 19.3 26.4 40.4 106.1 99.4 341.7
Parndana 24 09:20 11.3 90 9.18 9.8 20 22 1013.1 0 21.0 27.6 43.5 114.3 109.6 377.5
Point Avoid 24 09:20 13.9 78 9.35 10.1 26 32 1013.1 0 21.2 27.1 42.8 112.4 108.3 373.1
Port Augusta 24 09:20 15 50 6.41 4.7 22 24 1025 0 14.9 22.6 31.4 81.8 70.3 240.0
Port Lincoln Airport 24 09:20 16.5 61 8.57 9 26 30 1027 0 19.4 25.6 39.0 102.0 95.8 329.4
Port Pirie Airport Aws 24 09:20 15.3 52 6.79 5.5 28 33 1025.4 0 15.7 23.1 32.7 85.2 74.7 255.3
Renmark Airport 24 09:20 14.6 56 7.01 5.9 17 19 1025.6 0 16.2 23.6 33.8 88.2 78.1 267.2
Robe Airport 24 09:20 13.4 61 7.09 6.2 28 30 1013.1 0 16.4 23.6 34.1 89.2 79.4 271.9
Roseworthy 24 09:20 14.2 62 7.57 7 11 13 1026.2 0 17.4 24.6 36.1 94.4 85.6 293.4
Roxby Downs 24 09:20 16.4 37 5.16 1.7 22 26 1023.8 0 12.2 20.5 26.4 68.6 54.6 185.0
Snowtown 24 09:20 15.3 47 6.14 4.1 26 32 1026.1 0 14.3 22.2 30.3 78.9 66.9 228.0
Stenhouse Bay 24 09:20 14.7 67 8.44 8.6 17 19 1013.1 0 19.2 25.4 38.7 101.6 95.2 327.3
Strathalbyn 24 09:20 11.6 84 8.73 9 7 9 1026.5 0.8 20.0 27.3 42.1 110.3 104.1 358.2
Streaky Bay 24 09:00 14.1 70 8.5 8.7 6 1026.5 0 19.3 26.1 39.8 104.4 97.8 336.2
Tarcoola 24 09:20 15.8 52 7 6 19 24 1025.4 0 16.1 23.3 33.2 86.8 76.7 262.7
Victor Harbor 24 09:00 14.6 72 9.01 9.6 11 1013.1 0 20.4 26.3 41.0 107.8 102.8 353.9
Warooka 24 09:00 15.6 61 8.11 8.1 11 1027 0 18.4 25.1 37.6 98.4 90.9 312.4
Whyalla 24 09:20 15.1 58 7.48 6.9 24 28 1025.9 0 17.1 24.2 35.4 92.4 83.4 286.1
Woomera 24 09:20 14.9 42 5.35 2.1 30 33 1024.3 0 12.6 21.1 27.6 71.7 57.8 196.2
Wudinna Airport 24 09:20 14.1 63 7.65 7.2 9 11 1026.6 0 17.5 24.8 36.5 95.4 86.7 297.5
Yongala 24 09:00 9.5 81 7.38 6.4 15 1013.1 0 17.2 25.1 36.9 96.8 87.3 299.1
Yunta 24 09:20 13.1 62 7.08 6 17 20 1013.1 0 16.4 23.7 34.2 89.4 79.6 272.5

Last Refresh: 24-Oct-2021 09:31:25

Bureau of Meteorology